Time;durP1;ratioP1;P1;durP2;ratioP2;P2;SDS_P1;SDS_P2;PMS_P1;PMS_P2;Temp;Humidity;BMP_temperature;BMP_pressure;BME280_temperature;BME280_humidity;BME280_pressure;Samples;Min_cycle;Max_cycle;Signal;HPM_P1;HPM_P2
2023/01/11 00:01:05;;;;;;;;;0.00;0.00;;;;;12.99;84.27;100628.59;5102912;27;45716;-72
2023/01/11 00:03:31;;;;;;;;;0.33;0.33;;;;;12.98;83.69;100618.88;5100812;27;45504;-73
2023/01/11 00:05:58;;;;;;;;;1.00;1.00;;;;;12.99;84.11;100620.59;5090614;27;45326;-73
2023/01/11 00:08:26;;;;;;;;;0.00;0.00;;;;;13.02;83.54;100635.53;5096197;27;45712;-65
2023/01/11 00:10:52;;;;;;;;;0.00;0.00;;;;;13.00;83.94;100632.97;5090600;27;45298;-73
2023/01/11 00:13:18;;;;;;;;;0.00;0.00;;;;;13.03;84.42;100626.63;5118899;27;45504;-71
2023/01/11 00:15:43;;;;;;;;;0.33;0.33;;;;;12.99;84.58;100620.59;5106692;27;45498;-70
2023/01/11 00:18:09;;;;;;;;;3.00;0.00;;;;;12.98;84.89;100625.06;5107142;27;46088;-62
2023/01/11 00:20:39;;;;;;;;;0.00;0.00;;;;;12.93;84.64;100611.19;5078892;27;45421;-74
2023/01/11 00:23:04;;;;;;;;;2.00;1.00;;;;;12.87;85.38;100606.22;5097019;27;45361;-60
2023/01/11 00:25:30;;;;;;;;;2.00;1.00;;;;;12.92;85.52;100614.81;5116533;27;45483;-76
2023/01/11 00:27:55;;;;;;;;;1.00;1.00;;;;;12.89;85.27;100604.34;5098052;27;46133;-64
2023/01/11 00:30:21;;;;;;;;;1.33;0.00;;;;;12.94;85.28;100601.38;5116228;27;45402;-63
2023/01/11 00:32:49;;;;;;;;;1.00;1.00;;;;;12.92;84.90;100606.81;5100541;27;45301;-67
2023/01/11 00:35:15;;;;;;;;;1.67;1.67;;;;;12.88;84.98;100596.41;5098110;27;45456;-70
2023/01/11 00:37:40;;;;;;;;;0.67;0.67;;;;;12.95;85.21;100592.41;5112691;27;45531;-61
2023/01/11 00:40:07;;;;;;;;;1.00;1.00;;;;;12.92;85.06;100585.47;5093348;27;45417;-64
2023/01/11 00:48:04;;;;;;;;;1.00;1.00;;;;;12.91;86.97;100586.41;5100237;27;45461;-65
2023/01/11 00:50:32;;;;;;;;;0.00;0.00;;;;;12.94;86.30;100596.03;5097430;27;45408;-68
2023/01/11 00:52:58;;;;;;;;;0.00;0.00;;;;;12.90;86.38;100590.03;5097665;27;45613;-64
2023/01/11 00:55:25;;;;;;;;;2.00;0.00;;;;;12.87;86.84;100576.88;5097990;27;45270;-63
2023/01/11 00:57:50;;;;;;;;;0.00;0.00;;;;;12.86;87.14;100572.50;5113247;27;45486;-64
2023/01/11 01:00:17;;;;;;;;;0.33;0.33;;;;;12.86;87.25;100572.50;5113533;27;45591;-66
2023/01/11 01:02:43;;;;;;;;;0.00;0.00;;;;;12.88;86.57;100570.56;5093551;27;45312;-61
2023/01/11 01:05:08;;;;;;;;;0.00;0.00;;;;;12.86;86.64;100563.63;5077794;27;45329;-67
2023/01/11 01:07:35;;;;;;;;;0.00;0.00;;;;;12.81;87.82;100566.63;5102486;27;45240;-63
2023/01/11 01:10:00;;;;;;;;;0.00;0.00;;;;;12.71;87.50;100560.16;5118219;27;45256;-70
2023/01/11 01:15:10;;;;;;;;;1.00;1.00;;;;;12.79;87.42;100557.00;5104648;27;45274;-69
2023/01/11 01:17:35;;;;;;;;;0.00;0.00;;;;;12.82;87.19;100576.34;5115925;27;47923;-72
2023/01/11 01:20:00;;;;;;;;;0.00;0.00;;;;;12.81;88.37;100574.63;5101194;27;45435;-72
2023/01/11 01:22:26;;;;;;;;;3.00;1.00;;;;;12.66;88.64;100557.81;5113348;27;45441;-73
2023/01/11 01:24:51;;;;;;;;;0.00;0.00;;;;;12.78;88.60;100569.50;5096847;27;45570;-71
2023/01/11 01:27:18;;;;;;;;;0.00;0.00;;;;;12.80;87.54;100567.56;5097141;27;45250;-72
2023/01/11 01:29:44;;;;;;;;;0.00;0.00;;;;;12.70;87.52;100537.09;5117114;27;45393;-62
2023/01/11 01:32:10;;;;;;;;;1.00;0.00;;;;;12.82;87.18;100552.31;5097410;27;45431;-63
2023/01/11 01:34:36;;;;;;;;;0.00;0.00;;;;;12.85;87.34;100554.78;5096896;27;45325;-72
2023/01/11 01:37:06;;;;;;;;;0.00;0.00;;;;;12.85;87.16;100549.44;5098482;27;47020;-72
2023/01/11 01:39:32;;;;;;;;;0.00;0.00;;;;;12.85;87.15;100552.09;5102116;27;45307;-65
2023/01/11 01:41:58;;;;;;;;;0.00;0.00;;;;;12.87;87.43;100539.50;5114346;27;45331;-69
2023/01/11 01:45:05;;;;;;;;;2.67;1.00;;;;;12.85;87.76;100537.91;5115118;27;45774;-69
2023/01/11 01:47:50;;;;;;;;;0.33;0.33;;;;;12.83;87.65;100546.00;5106293;27;45771;-68
2023/01/11 01:50:27;;;;;;;;;1.33;0.00;;;;;12.79;88.12;100536.50;5114552;27;45403;-69
2023/01/11 01:52:59;;;;;;;;;1.00;1.00;;;;;12.80;88.58;100546.22;5116119;27;45414;-73
2023/01/11 01:55:29;;;;;;;;;0.00;0.00;;;;;12.69;88.55;100522.06;5080860;27;45510;-73
2023/01/11 01:57:58;;;;;;;;;0.00;0.00;;;;;12.77;88.57;100543.75;5081279;27;46170;-68
2023/01/11 02:00:23;;;;;;;;;0.00;0.00;;;;;12.75;89.21;100542.97;5113384;27;45367;-73
2023/01/11 02:02:49;;;;;;;;;0.00;0.00;;;;;12.71;88.94;100533.47;5092833;27;45441;-74
2023/01/11 02:05:16;;;;;;;;;0.00;0.00;;;;;12.77;88.72;100535.75;5092872;27;45412;-65
2023/01/11 02:07:43;;;;;;;;;0.00;0.00;;;;;12.80;88.76;100556.91;5102539;27;45504;-71
2023/01/11 02:10:18;;;;;;;;;0.00;0.00;;;;;12.77;89.21;100557.09;5114985;27;45444;-66
2023/01/11 02:12:51;;;;;;;;;0.00;0.00;;;;;12.80;89.23;100548.03;5117809;27;45340;-72
2023/01/11 02:15:19;;;;;;;;;0.00;0.00;;;;;12.81;88.32;100553.28;5100274;27;45452;-63
2023/01/11 02:17:45;;;;;;;;;0.00;0.00;;;;;12.73;88.47;100538.72;5103536;27;45603;-61
2023/01/11 02:20:23;;;;;;;;;0.00;0.00;;;;;12.81;88.68;100558.59;5096487;27;45238;-61
2023/01/11 02:23:26;;;;;;;;;0.00;0.00;;;;;12.86;88.21;100564.50;5102419;27;45467;-61
2023/01/11 02:26:22;;;;;;;;;0.00;0.00;;;;;12.86;88.25;100556.47;5095353;27;45302;-62
2023/01/11 02:28:55;;;;;;;;;0.00;0.00;;;;;12.90;87.50;100551.81;5090973;27;46525;-68
2023/01/11 02:31:33;;;;;;;;;0.00;0.00;;;;;12.93;88.09;100549.78;5115840;27;45316;-65
2023/01/11 02:34:21;;;;;;;;;0.00;0.00;;;;;12.94;87.25;100551.50;5116812;27;45434;-61
2023/01/11 02:36:55;;;;;;;;;0.00;0.00;;;;;12.95;87.44;100537.19;5103373;27;46001;-62
2023/01/11 02:39:41;;;;;;;;;0.00;0.00;;;;;12.92;87.33;100534.75;5099927;27;46040;-63
2023/01/11 02:45:46;;;;;;;;;0.00;0.00;;;;;12.91;87.83;100538.38;5107632;27;45405;-67
2023/01/11 02:48:33;;;;;;;;;0.00;0.00;;;;;12.96;87.49;100532.72;5095959;27;45532;-69
2023/01/11 02:51:07;;;;;;;;;0.00;0.00;;;;;12.94;88.47;100537.31;5094831;27;46156;-63
2023/01/11 02:53:43;;;;;;;;;0.00;0.00;;;;;12.93;87.73;100535.59;5075372;27;45383;-70
2023/01/11 02:56:22;;;;;;;;;0.00;0.00;;;;;12.93;88.23;100539.13;5077077;27;45551;-68
2023/01/11 02:58:50;;;;;;;;;0.00;0.00;;;;;12.96;87.87;100541.56;5109063;27;45943;-69
2023/01/11 03:01:17;;;;;;;;;0.00;0.00;;;;;12.96;87.54;100525.56;5115193;27;45437;-72
2023/01/11 03:03:43;;;;;;;;;0.00;0.00;;;;;12.95;87.42;100529.19;5116255;27;45434;-69
2023/01/11 03:06:17;;;;;;;;;0.00;0.00;;;;;13.00;87.80;100537.72;5076951;27;45447;-71
2023/01/11 03:08:54;;;;;;;;;0.00;0.00;;;;;13.00;87.36;100531.53;5113752;27;45248;-62
2023/01/11 03:14:24;;;;;;;;;0.00;0.00;;;;;13.04;86.90;100527.72;5118307;27;45261;-69
2023/01/11 03:17:20;;;;;;;;;0.00;0.00;;;;;13.04;87.53;100541.06;5130048;27;45331;-72
2023/01/11 03:19:53;;;;;;;;;0.00;0.00;;;;;13.05;87.07;100517.91;5118593;27;46990;-63
2023/01/11 03:23:00;;;;;;;;;0.00;0.00;;;;;13.08;86.80;100521.22;5115503;27;45678;-62
2023/01/11 03:25:34;;;;;;;;;0.00;0.00;;;;;13.06;87.10;100515.13;5087816;27;45445;-72
2023/01/11 03:28:18;;;;;;;;;0.00;0.00;;;;;13.10;87.64;100526.44;5093581;27;45409;-72
2023/01/11 03:30:47;;;;;;;;;0.00;0.00;;;;;13.08;87.01;100533.72;5079028;28;45422;-72
2023/01/11 03:33:21;;;;;;;;;0.00;0.00;;;;;13.10;86.83;100531.78;5112716;27;45493;-71
2023/01/11 03:36:17;;;;;;;;;0.00;0.00;;;;;13.12;87.21;100529.88;5118512;27;45801;-63
2023/01/11 03:38:53;;;;;;;;;0.00;0.00;;;;;13.09;87.48;100530.06;5087464;27;45286;-72
2023/01/11 03:41:24;;;;;;;;;0.67;0.00;;;;;13.15;87.72;100540.31;5082140;27;45233;-62
2023/01/11 03:43:53;;;;;;;;;0.00;0.00;;;;;13.10;88.40;100529.13;5098686;27;45451;-70
2023/01/11 03:46:28;;;;;;;;;0.00;0.00;;;;;12.94;88.35;100505.28;5110379;27;45484;-63
2023/01/11 03:49:09;;;;;;;;;0.00;0.00;;;;;12.98;89.14;100518.28;5113626;27;45658;-61
2023/01/11 03:51:41;;;;;;;;;0.00;0.00;;;;;13.04;89.52;100540.22;5092435;27;45501;-61
2023/01/11 03:54:12;;;;;;;;;0.00;0.00;;;;;12.99;89.73;100536.03;5096932;27;46196;-61
2023/01/11 03:56:51;;;;;;;;;0.00;0.00;;;;;12.96;90.80;100540.72;5078173;27;45479;-62
2023/01/11 03:59:17;;;;;;;;;0.00;0.00;;;;;12.83;92.89;100529.16;5079728;27;45382;-65
2023/01/11 04:01:42;;;;;;;;;0.00;0.00;;;;;12.91;90.77;100538.38;5115152;27;47039;-64
2023/01/11 04:04:08;;;;;;;;;0.00;0.00;;;;;12.92;90.76;100540.06;5119030;27;45924;-66
2023/01/11 04:06:36;;;;;;;;;1.00;0.00;;;;;12.88;91.38;100533.22;5118566;27;45535;-63
2023/01/11 04:09:01;;;;;;;;;0.00;0.00;;;;;12.84;91.08;100542.38;5102417;27;45494;-65
2023/01/11 04:11:27;;;;;;;;;0.00;0.00;;;;;12.86;90.74;100535.13;5100391;27;45490;-65
2023/01/11 04:13:52;;;;;;;;;0.00;0.00;;;;;12.80;91.60;100545.38;5135141;27;46360;-62
2023/01/11 04:16:17;;;;;;;;;0.00;0.00;;;;;12.85;91.25;100546.75;5105699;27;45516;-70
2023/01/11 04:18:43;;;;;;;;;0.00;0.00;;;;;12.83;91.70;100551.34;5113793;27;45307;-63
2023/01/11 04:21:08;;;;;;;;;0.00;0.00;;;;;12.83;92.03;100538.00;5098205;27;45608;-63
2023/01/11 04:23:34;;;;;;;;;0.00;0.00;;;;;12.84;92.41;100544.19;5117026;27;45808;-67
2023/01/11 04:25:59;;;;;;;;;0.00;0.00;;;;;12.80;91.84;100540.88;5121503;27;45360;-65
2023/01/11 04:28:25;;;;;;;;;0.00;0.00;;;;;12.74;93.94;100529.75;5096867;27;45377;-65
2023/01/11 04:30:50;;;;;;;;;0.00;0.00;;;;;12.78;92.39;100542.81;5100085;27;45445;-66
2023/01/11 04:33:15;;;;;;;;;0.00;0.00;;;;;12.68;91.92;100533.69;5098554;27;45191;-63
2023/01/11 04:35:42;;;;;;;;;0.00;0.00;;;;;12.76;93.37;100552.72;5095843;27;47838;-64
2023/01/11 04:38:08;;;;;;;;;0.00;0.00;;;;;12.68;93.00;100536.34;5081488;27;45373;-66
2023/01/11 04:40:33;;;;;;;;;1.00;0.00;;;;;12.77;91.95;100554.44;5097674;27;45387;-63
2023/01/11 04:43:01;;;;;;;;;0.00;0.00;;;;;12.76;92.21;100568.75;5117900;27;46015;-65
2023/01/11 04:45:27;;;;;;;;;0.00;0.00;;;;;12.78;91.36;100573.97;5116970;27;45373;-67
2023/01/11 04:47:56;;;;;;;;;0.00;0.00;;;;;12.73;91.20;100568.91;5118620;27;45519;-66
2023/01/11 04:50:24;;;;;;;;;0.00;0.00;;;;;12.76;92.01;100598.09;5115907;27;45229;-67
2023/01/11 04:52:50;;;;;;;;;0.00;0.00;;;;;14.80;100.00;100598.25;5114941;27;46583;-68
2023/01/11 04:55:16;;;;;;;;;0.00;0.00;;;;;14.31;100.00;100601.75;5116201;27;45517;-69
2023/01/11 04:57:45;;;;;;;;;1.00;0.00;;;;;14.09;100.00;100608.66;5097004;27;45318;-67
2023/01/11 05:00:12;;;;;;;;;0.00;0.00;;;;;14.05;100.00;100607.13;5098553;27;45250;-66
2023/01/11 05:02:38;;;;;;;;;0.00;0.00;;;;;14.06;94.34;100603.53;5097588;27;45305;-66
2023/01/11 05:05:05;;;;;;;;;0.00;0.00;;;;;14.11;90.62;100627.25;5097725;27;45504;-66
2023/01/11 05:07:31;;;;;;;;;0.00;0.00;;;;;13.97;83.32;100630.06;5099109;27;45491;-62
2023/01/11 05:09:56;;;;;;;;;0.00;0.00;;;;;13.91;81.72;100635.81;5111783;27;45475;-67
2023/01/11 05:12:22;;;;;;;;;1.00;0.00;;;;;14.08;81.04;100644.38;5117421;27;45467;-69
2023/01/11 05:14:47;;;;;;;;;0.00;0.00;;;;;13.84;80.77;100627.38;5118745;27;45401;-69
2023/01/11 05:17:14;;;;;;;;;0.67;0.00;;;;;13.93;80.84;100650.78;5099465;27;45463;-72
2023/01/11 05:19:40;;;;;;;;;0.00;0.00;;;;;13.85;80.89;100647.78;5096982;27;45227;-71
2023/01/11 05:22:05;;;;;;;;;0.00;0.00;;;;;13.90;81.12;100658.16;5097832;27;45442;-70
2023/01/11 05:24:30;;;;;;;;;0.00;0.00;;;;;13.84;80.41;100662.13;5097321;27;45252;-72
2023/01/11 05:26:56;;;;;;;;;1.00;1.00;;;;;13.68;80.20;100664.13;5101841;27;45437;-73
2023/01/11 05:29:21;;;;;;;;;0.00;0.00;;;;;13.53;80.63;100668.66;5096494;27;45736;-71
2023/01/11 05:31:48;;;;;;;;;0.00;0.00;;;;;13.48;81.02;100676.16;5090279;27;45552;-66
2023/01/11 05:34:14;;;;;;;;;0.00;0.00;;;;;13.48;81.84;100681.50;5097566;27;45496;-64
2023/01/11 05:36:41;;;;;;;;;0.00;0.00;;;;;13.36;82.27;100690.31;5110602;27;45514;-63
2023/01/11 05:39:06;;;;;;;;;0.00;0.00;;;;;13.28;82.61;100694.38;5094592;27;45696;-62
2023/01/11 05:41:32;;;;;;;;;0.67;0.00;;;;;13.35;82.65;100701.97;5082042;27;47727;-62
2023/01/11 05:46:42;;;;;;;;;0.00;0.00;;;;;13.43;83.02;100721.88;5113402;27;45356;-68
2023/01/11 05:49:09;;;;;;;;;0.00;0.00;;;;;13.44;81.74;100720.91;5099922;27;45493;-65
2023/01/11 05:51:36;;;;;;;;;0.00;0.00;;;;;13.43;82.79;100721.88;5096310;27;46192;-64
2023/01/11 05:54:04;;;;;;;;;0.00;0.00;;;;;13.33;82.99;100710.06;5096549;27;45340;-64
2023/01/11 05:56:29;;;;;;;;;0.00;0.00;;;;;13.41;82.90;100710.44;5096845;27;45423;-68
2023/01/11 05:58:56;;;;;;;;;1.00;1.00;;;;;13.46;82.69;100719.00;5091082;27;45468;-67
2023/01/11 06:01:23;;;;;;;;;0.00;0.00;;;;;13.45;82.05;100719.09;5083951;27;45330;-64
2023/01/11 06:03:49;;;;;;;;;2.00;1.00;;;;;13.39;81.34;100725.69;5076045;27;45365;-63
2023/01/11 06:06:15;;;;;;;;;2.00;0.00;;;;;13.26;80.29;100712.28;5089302;27;45613;-62
2023/01/11 06:08:41;;;;;;;;;0.00;0.00;;;;;13.37;80.19;100726.75;5104530;27;45275;-66
2023/01/11 06:11:06;;;;;;;;;0.00;0.00;;;;;13.27;79.92;100724.66;5118350;27;46171;-67
2023/01/11 06:13:32;;;;;;;;;7.00;0.00;;;;;13.29;79.48;100716.59;5117275;27;45244;-66
2023/01/11 06:16:05;;;;;;;;;1.00;0.00;;;;;13.23;79.28;100733.84;5110911;27;46810;-64
2023/01/11 06:18:33;;;;;;;;;3.00;0.00;;;;;13.21;79.16;100738.44;5093912;27;45420;-68
2023/01/11 06:21:00;;;;;;;;;1.67;1.67;;;;;13.26;78.90;100749.66;5080687;27;46837;-60
2023/01/11 06:23:27;;;;;;;;;1.67;1.67;;;;;13.26;78.46;100747.00;5094800;27;45452;-70
2023/01/11 06:25:52;;;;;;;;;0.67;0.67;;;;;13.22;78.80;100750.84;5089756;27;45454;-68
2023/01/11 06:28:17;;;;;;;;;1.33;0.00;;;;;13.22;78.06;100766.00;5102889;27;45369;-69
2023/01/11 06:30:43;;;;;;;;;0.00;0.00;;;;;13.21;78.64;100761.63;5075577;27;45788;-67
2023/01/11 06:33:08;;;;;;;;;2.00;0.00;;;;;13.17;78.03;100762.75;5086584;27;45489;-71
2023/01/11 06:35:41;;;;;;;;;1.33;0.33;;;;;13.11;78.49;100774.66;5092616;27;45749;-69
2023/01/11 06:38:12;;;;;;;;;2.00;1.00;;;;;13.12;78.05;100768.38;5115000;27;45492;-64
2023/01/11 06:40:39;;;;;;;;;0.00;0.00;;;;;13.13;78.22;100772.75;5094820;27;46439;-72
2023/01/11 06:43:05;;;;;;;;;2.67;1.00;;;;;13.13;78.01;100793.25;5109804;27;45824;-65
2023/01/11 06:45:31;;;;;;;;;1.00;1.00;;;;;13.12;77.89;100802.22;5096272;27;45450;-71
2023/01/11 06:47:57;;;;;;;;;1.67;0.67;;;;;13.06;78.08;100810.63;5100151;27;45425;-63
2023/01/11 06:50:23;;;;;;;;;1.00;1.00;;;;;13.09;77.53;100815.78;5110763;27;45512;-64
2023/01/11 06:52:56;;;;;;;;;0.00;0.00;;;;;13.12;77.93;100819.09;5094609;27;45272;-67
2023/01/11 06:55:23;;;;;;;;;1.67;1.00;;;;;13.15;77.94;100812.69;5095843;27;45440;-62
2023/01/11 06:57:48;;;;;;;;;2.00;1.00;;;;;13.20;77.96;100813.31;5096264;27;45379;-61
2023/01/11 07:00:15;;;;;;;;;1.00;1.00;;;;;13.14;77.69;100827.00;5090183;27;47252;-62
2023/01/11 07:02:41;;;;;;;;;2.67;1.00;;;;;13.18;78.13;100817.88;5096562;27;45322;-65
2023/01/11 07:05:07;;;;;;;;;1.33;1.00;;;;;13.17;77.75;100824.16;5099798;27;45384;-67
2023/01/11 07:07:32;;;;;;;;;1.33;1.00;;;;;13.08;76.90;100806.03;5099274;27;45286;-70
2023/01/11 07:09:58;;;;;;;;;1.00;1.00;;;;;12.95;77.39;100790.78;5098840;27;46271;-67
2023/01/11 07:12:23;;;;;;;;;3.33;0.67;;;;;13.06;77.52;100819.50;5115354;27;45586;-60
2023/01/11 07:14:49;;;;;;;;;4.33;2.00;;;;;13.05;77.77;100827.59;5119981;27;45450;-63
2023/01/11 07:17:14;;;;;;;;;1.67;1.00;;;;;13.05;77.57;100830.28;5113652;27;45545;-68
2023/01/11 07:19:39;;;;;;;;;0.00;0.00;;;;;13.03;77.29;100816.16;5105265;27;46848;-67
2023/01/11 07:22:05;;;;;;;;;1.00;1.00;;;;;12.98;77.89;100832.47;5097099;27;45459;-67
2023/01/11 07:24:31;;;;;;;;;1.00;1.00;;;;;12.89;77.77;100827.69;5099183;27;45340;-72
2023/01/11 07:26:59;;;;;;;;;2.00;2.00;;;;;12.80;78.69;100815.78;5099270;27;45372;-67
2023/01/11 07:29:25;;;;;;;;;1.00;1.00;;;;;12.80;77.76;100817.59;5098774;27;46183;-71
2023/01/11 07:31:50;;;;;;;;;1.00;1.00;;;;;12.88;77.54;100826.81;5113675;27;45416;-72
2023/01/11 07:34:17;;;;;;;;;2.00;1.00;;;;;12.75;77.70;100820.53;5094159;27;45432;-69
2023/01/11 07:36:42;;;;;;;;;1.00;1.00;;;;;12.82;78.68;100845.03;5080004;27;45610;-69
2023/01/11 07:39:08;;;;;;;;;1.67;1.00;;;;;12.75;78.38;100847.22;5090366;27;50934;-70
2023/01/11 07:44:17;;;;;;;;;2.33;1.00;;;;;12.73;77.91;100845.59;5077493;28;45456;-63
2023/01/11 07:46:42;;;;;;;;;2.00;1.00;;;;;12.65;78.29;100849.59;5077579;27;45529;-71
2023/01/11 07:49:08;;;;;;;;;1.00;0.67;;;;;12.69;77.91;100868.94;5081136;27;45960;-64
2023/01/11 07:51:33;;;;;;;;;1.00;1.00;;;;;12.57;78.09;100877.69;5098672;27;45222;-65
2023/01/11 07:54:01;;;;;;;;;2.00;2.00;;;;;12.63;77.64;100901.31;5079488;27;46306;-66
2023/01/11 07:56:27;;;;;;;;;1.67;1.00;;;;;12.62;77.18;100899.59;5076936;27;45361;-66
2023/01/11 07:58:52;;;;;;;;;3.00;0.00;;;;;12.63;77.33;100912.00;5077679;27;46539;-68
2023/01/11 08:01:18;;;;;;;;;1.00;1.00;;;;;12.49;76.86;100882.59;5108861;27;45483;-72
2023/01/11 08:03:43;;;;;;;;;0.00;0.00;;;;;12.49;77.41;100926.16;5119265;27;45558;-71
2023/01/11 08:06:08;;;;;;;;;1.00;1.00;;;;;12.66;76.61;100927.84;5111869;27;45490;-65
2023/01/11 08:08:34;;;;;;;;;1.00;1.00;;;;;12.47;76.35;100906.72;5102327;27;46013;-63
2023/01/11 08:16:27;;;;;;;;;2.00;0.00;;;;;12.57;76.00;100947.91;5088389;27;45542;-65
2023/01/11 08:18:52;;;;;;;;;2.00;0.00;;;;;12.40;75.65;100938.22;5094308;27;46239;-65
2023/01/11 08:21:20;;;;;;;;;1.33;1.33;;;;;12.38;76.60;100939.28;5094427;27;45446;-67
2023/01/11 08:23:45;;;;;;;;;1.67;1.00;;;;;12.40;76.29;100956.03;5088035;27;45389;-64
2023/01/11 08:26:15;;;;;;;;;0.33;0.33;;;;;12.38;75.82;100945.47;5091784;27;45561;-61
2023/01/11 08:28:44;;;;;;;;;0.00;0.00;;;;;12.30;76.42;100942.38;5077079;27;45945;-59
2023/01/11 08:31:09;;;;;;;;;1.33;0.33;;;;;12.35;76.41;100955.44;5105426;27;45541;-58
2023/01/11 08:33:35;;;;;;;;;3.00;1.00;;;;;12.47;75.84;100976.06;5077653;27;45297;-66
2023/01/11 08:36:04;;;;;;;;;0.00;0.00;;;;;12.46;76.35;100973.50;5085314;27;45382;-64
2023/01/11 08:38:32;;;;;;;;;2.00;0.67;;;;;12.40;76.08;100975.56;5093117;27;45807;-67
2023/01/11 08:40:57;;;;;;;;;2.00;0.33;;;;;12.38;75.77;100974.81;5079154;27;45444;-59
2023/01/11 08:43:23;;;;;;;;;5.33;1.00;;;;;12.41;75.62;100976.44;5094610;27;45424;-62
2023/01/11 08:45:50;;;;;;;;;0.67;0.67;;;;;12.38;76.13;100977.47;5087836;27;45433;-59
2023/01/11 08:48:15;;;;;;;;;0.67;0.00;;;;;12.37;75.89;100986.44;5083094;27;45545;-63
2023/01/11 08:50:41;;;;;;;;;6.00;1.00;;;;;12.40;75.85;100986.25;5092405;27;45523;-64
2023/01/11 08:53:06;;;;;;;;;1.00;1.00;;;;;12.31;75.04;100968.09;5097185;27;45586;-67
2023/01/11 08:55:31;;;;;;;;;1.33;0.33;;;;;12.51;74.65;101003.44;5081924;27;45687;-71
2023/01/11 08:57:57;;;;;;;;;0.67;0.33;;;;;12.24;75.51;101001.41;5076936;27;46593;-61
2023/01/11 09:00:22;;;;;;;;;0.67;0.67;;;;;12.34;75.67;100997.25;5093267;27;45376;-62
2023/01/11 09:02:48;;;;;;;;;0.00;0.00;;;;;12.22;75.28;100984.59;5086816;27;45319;-64
2023/01/11 09:05:13;;;;;;;;;2.00;1.00;;;;;12.27;75.12;101005.69;5087481;27;45555;-65
2023/01/11 09:07:39;;;;;;;;;3.67;1.00;;;;;12.25;75.60;101007.59;5099225;27;45618;-60
2023/01/11 09:10:05;;;;;;;;;2.00;2.00;;;;;12.48;74.62;101024.94;5092993;27;45450;-69
2023/01/11 09:12:31;;;;;;;;;2.00;1.00;;;;;12.40;74.79;101018.25;5096871;27;45437;-69
2023/01/11 09:14:57;;;;;;;;;4.00;3.33;;;;;12.38;74.61;101020.16;5095581;27;45425;-69
2023/01/11 09:17:23;;;;;;;;;2.67;1.33;;;;;12.44;74.06;101026.06;5083681;27;46162;-61
2023/01/11 09:19:48;;;;;;;;;4.00;1.00;;;;;12.40;74.53;101026.25;5088673;27;47006;-68
2023/01/11 09:22:13;;;;;;;;;3.67;1.00;;;;;12.42;73.76;101042.16;5076551;27;45901;-67
2023/01/11 09:24:39;;;;;;;;;2.67;1.00;;;;;12.32;72.50;101031.16;5093922;27;45523;-58
2023/01/11 09:27:05;;;;;;;;;1.00;1.00;;;;;12.44;73.22;101045.59;5090614;27;46519;-63
2023/01/11 09:29:30;;;;;;;;;5.33;1.67;;;;;12.47;73.78;101065.91;5080972;27;45374;-59
2023/01/11 09:31:56;;;;;;;;;3.00;1.33;;;;;12.47;73.91;101060.56;5099904;27;45516;-66
2023/01/11 09:34:24;;;;;;;;;6.00;2.33;;;;;12.46;73.29;101058.84;5088131;27;45470;-66
2023/01/11 09:36:49;;;;;;;;;0.00;0.00;;;;;12.34;72.99;101053.25;5113149;27;45554;-66
2023/01/11 09:39:18;;;;;;;;;6.67;1.67;;;;;12.30;73.04;101046.38;5091473;27;45598;-69
2023/01/11 09:42:05;;;;;;;;;2.00;2.00;;;;;12.26;73.40;101068.84;5095875;27;45438;-72
2023/01/11 09:44:34;;;;;;;;;2.00;2.00;;;;;12.19;72.40;101072.78;5091344;27;45203;-69
2023/01/11 09:47:12;;;;;;;;;4.00;1.00;;;;;12.16;72.91;101067.63;5084912;27;48567;-66
2023/01/11 09:49:43;;;;;;;;;4.67;2.00;;;;;12.11;71.34;101064.38;5095658;27;45334;-67
2023/01/11 09:52:38;;;;;;;;;3.00;1.00;;;;;12.09;72.11;101068.88;5097213;27;45293;-70
2023/01/11 09:55:05;;;;;;;;;2.33;1.00;;;;;12.08;72.25;101094.69;5097359;27;45356;-69
2023/01/11 09:57:33;;;;;;;;;1.67;1.00;;;;;12.02;72.24;101099.50;5096875;27;45385;-67
2023/01/11 10:00:30;;;;;;;;;4.67;1.00;;;;;11.95;71.61;101096.31;5094594;27;45437;-61
2023/01/11 10:02:59;;;;;;;;;1.00;1.00;;;;;11.97;71.60;101115.72;5083347;27;45745;-67
2023/01/11 10:05:28;;;;;;;;;2.00;2.00;;;;;12.01;71.78;101109.31;5079780;27;45511;-61
2023/01/11 10:08:18;;;;;;;;;3.67;1.00;;;;;11.94;72.16;101105.25;5077195;27;47390;-67
2023/01/11 10:11:00;;;;;;;;;2.00;2.00;;;;;12.04;71.00;101110.94;5096059;27;45450;-67
2023/01/11 10:13:42;;;;;;;;;1.67;1.00;;;;;12.01;70.65;101121.78;5096323;27;45241;-66
2023/01/11 10:16:27;;;;;;;;;0.00;0.00;;;;;12.15;70.48;101113.91;5096553;27;45431;-65
2023/01/11 10:18:57;;;;;;;;;2.00;1.00;;;;;12.19;69.78;101117.25;5091470;27;47435;-65
2023/01/11 10:21:31;;;;;;;;;2.00;0.33;;;;;12.04;70.10;101116.28;5093417;27;45361;-65
2023/01/11 10:24:01;;;;;;;;;2.00;0.67;;;;;12.23;69.73;101116.13;5099720;27;45180;-65
2023/01/11 10:26:35;;;;;;;;;3.00;1.00;;;;;12.36;68.71;101120.72;5100072;27;45521;-66
2023/01/11 10:29:20;;;;;;;;;1.00;1.00;;;;;12.08;70.04;101112.50;5097588;27;47480;-62
2023/01/11 10:32:31;;;;;;;;;1.67;1.33;;;;;12.22;69.31;101120.59;5099354;27;45381;-64
2023/01/11 10:35:24;;;;;;;;;0.00;0.00;;;;;12.22;69.54;101141.94;5098801;27;45763;-62
2023/01/11 10:38:09;;;;;;;;;2.00;0.00;;;;;12.18;69.37;101132.38;5079434;27;45191;-65
2023/01/11 10:41:02;;;;;;;;;1.33;1.33;;;;;12.23;69.77;101127.66;5098829;27;45498;-65
2023/01/11 10:43:32;;;;;;;;;0.67;0.33;;;;;12.35;68.78;101135.00;5099491;27;45494;-66
2023/01/11 10:46:12;;;;;;;;;2.00;2.00;;;;;12.35;68.98;101124.31;5099292;27;45352;-64
2023/01/11 10:48:43;;;;;;;;;1.00;1.00;;;;;12.43;68.74;101133.72;5099420;27;45488;-65
2023/01/11 10:51:36;;;;;;;;;1.00;1.00;;;;;12.57;68.94;101139.16;5099648;27;45260;-64
2023/01/11 10:54:12;;;;;;;;;1.33;0.00;;;;;12.66;69.01;101133.31;5098298;27;45257;-57
2023/01/11 10:57:16;;;;;;;;;1.00;1.00;;;;;12.81;68.40;101144.94;5115185;27;45314;-61
2023/01/11 10:59:58;;;;;;;;;3.33;1.33;;;;;12.92;66.95;101148.72;5115448;27;45361;-63
2023/01/11 11:02:27;;;;;;;;;2.67;1.00;;;;;12.76;66.85;101142.53;5111154;27;45535;-61
2023/01/11 11:05:04;;;;;;;;;1.00;1.00;;;;;12.71;66.69;101155.25;5114001;27;45826;-62
2023/01/11 11:07:45;;;;;;;;;1.33;0.33;;;;;12.90;66.88;101161.28;5106693;27;45572;-70
2023/01/11 11:10:27;;;;;;;;;2.67;1.00;;;;;13.00;66.93;101151.78;5088384;27;45401;-67
2023/01/11 11:13:10;;;;;;;;;1.00;1.00;;;;;13.18;66.14;101157.03;5097342;27;45440;-66
2023/01/11 11:15:46;;;;;;;;;0.00;0.00;;;;;13.29;65.47;101162.66;5084300;27;46048;-68
2023/01/11 11:18:11;;;;;;;;;3.33;0.33;;;;;13.04;65.79;101147.16;5096269;27;45583;-62
2023/01/11 11:20:37;;;;;;;;;1.00;1.00;;;;;13.02;67.07;101153.50;5081805;27;45353;-61
2023/01/11 11:23:03;;;;;;;;;6.00;2.00;;;;;13.09;67.34;101162.91;5087911;27;45459;-66
2023/01/11 11:25:37;;;;;;;;;2.00;1.00;;;;;13.21;66.52;101164.91;5080288;27;45808;-69
2023/01/11 11:28:24;;;;;;;;;3.00;0.00;;;;;13.28;64.77;101172.50;5078406;27;45451;-58
2023/01/11 11:30:56;;;;;;;;;3.33;1.67;;;;;13.18;66.40;101173.97;5078065;27;45353;-65
2023/01/11 11:33:24;;;;;;;;;2.00;2.00;;;;;13.02;66.32;101159.75;5078194;27;45609;-63
2023/01/11 11:36:03;;;;;;;;;1.67;1.00;;;;;13.12;66.34;101170.72;5096517;27;45418;-69
2023/01/11 11:38:32;;;;;;;;;3.33;0.00;;;;;13.00;65.36;101178.50;5111532;27;45510;-64
2023/01/11 11:41:08;;;;;;;;;2.00;2.00;;;;;13.09;66.62;101181.59;5078705;27;45571;-63
2023/01/11 11:43:36;;;;;;;;;3.00;2.00;;;;;13.22;65.67;101179.97;5096489;27;47068;-62
2023/01/11 11:46:04;;;;;;;;;3.67;1.33;;;;;13.13;64.93;101170.63;5097178;27;45343;-66
2023/01/11 11:48:32;;;;;;;;;0.00;0.00;;;;;13.09;66.09;101169.09;5091712;27;45519;-67
2023/01/11 11:51:01;;;;;;;;;1.00;1.00;;;;;13.09;65.54;101165.56;5078508;27;45402;-68
2023/01/11 11:53:45;;;;;;;;;4.33;2.00;;;;;13.28;65.65;101174.25;5098741;27;47801;-67
2023/01/11 11:56:22;;;;;;;;;5.00;1.00;;;;;13.34;64.88;101171.25;5082964;27;45353;-65
2023/01/11 11:58:49;;;;;;;;;2.33;1.00;;;;;13.35;64.41;101178.31;5089393;27;45394;-65
2023/01/11 12:01:25;;;;;;;;;3.67;1.67;;;;;13.46;63.60;101175.03;5096207;27;45494;-67
2023/01/11 12:03:55;;;;;;;;;3.33;2.00;;;;;13.56;63.32;101171.72;5090847;27;45551;-70